createdAt,value
2023-03-26T00:00:02.410Z,67.90
2023-03-26T00:02:41.975Z,68.02
2023-03-26T00:05:15.059Z,68.12
2023-03-26T00:07:46.259Z,68.08
2023-03-26T00:10:15.633Z,68.13
2023-03-26T00:12:49.289Z,68.21
2023-03-26T00:15:17.857Z,68.16
2023-03-26T00:17:46.732Z,68.27
2023-03-26T00:20:20.732Z,68.23
2023-03-26T00:22:49.145Z,68.24
2023-03-26T00:25:18.236Z,68.24
2023-03-26T00:27:49.996Z,68.34
2023-03-26T00:30:18.953Z,68.40
2023-03-26T00:32:53.859Z,68.45
2023-03-26T00:35:22.516Z,68.43
2023-03-26T00:37:51.642Z,68.41
2023-03-26T00:40:20.089Z,68.36
2023-03-26T00:42:48.570Z,68.42
2023-03-26T00:45:21.482Z,68.52
2023-03-26T00:47:50.097Z,68.60
2023-03-26T00:50:18.422Z,68.50
2023-03-26T00:52:47.108Z,68.49
2023-03-26T00:55:16.356Z,68.51
2023-03-26T00:57:46.528Z,68.62
2023-03-26T01:00:15.560Z,68.65
2023-03-26T01:02:46.544Z,68.75
2023-03-26T01:05:43.409Z,68.76
2023-03-26T01:08:20.633Z,68.71
2023-03-26T01:10:52.763Z,68.76
2023-03-26T01:13:23.598Z,68.92
2023-03-26T01:15:53.212Z,69.01
2023-03-26T01:18:22.302Z,68.94
2023-03-26T01:20:50.895Z,68.89
2023-03-26T01:23:22.442Z,68.82
2023-03-26T01:26:02.392Z,68.95
2023-03-26T01:28:35.580Z,69.08
2023-03-26T01:31:13.383Z,69.17
2023-03-26T01:34:12.686Z,69.14
2023-03-26T01:36:56.119Z,69.21
2023-03-26T01:39:32.044Z,69.32
2023-03-26T01:42:08.367Z,69.35
2023-03-26T01:44:45.054Z,69.37
2023-03-26T01:47:13.603Z,69.44
2023-03-26T01:49:41.680Z,69.54
2023-03-26T01:52:14.701Z,69.45
2023-03-26T01:54:46.814Z,69.56
2023-03-26T01:57:16.753Z,69.57
2023-03-26T02:00:02.030Z,69.52
2023-03-26T02:02:51.111Z,69.69
2023-03-26T02:05:22.332Z,69.96
2023-03-26T02:08:00.517Z,70.39
2023-03-26T02:10:56.565Z,70.52
2023-03-26T02:13:26.070Z,70.80
2023-03-26T02:15:59.626Z,70.92
2023-03-26T02:18:39.293Z,71.07
2023-03-26T02:21:21.908Z,71.01
2023-03-26T02:23:58.074Z,70.50
2023-03-26T02:26:26.378Z,70.35
2023-03-26T02:29:03.638Z,70.38
2023-03-26T02:31:38.848Z,70.38
2023-03-26T02:34:07.593Z,70.32
2023-03-26T02:36:38.065Z,70.21
2023-03-26T02:39:06.596Z,70.19
2023-03-26T02:41:42.206Z,70.10
2023-03-26T02:44:12.993Z,70.19
2023-03-26T02:47:01.628Z,70.17
2023-03-26T02:49:49.367Z,69.99
2023-03-26T02:52:24.198Z,70.10
2023-03-26T02:54:56.902Z,70.13
2023-03-26T02:57:26.856Z,70.18
2023-03-26T03:00:09.293Z,70.22
2023-03-26T03:02:41.430Z,70.06
2023-03-26T03:05:31.826Z,70.01
2023-03-26T03:08:22.638Z,69.74
2023-03-26T03:11:12.860Z,69.43
2023-03-26T03:13:50.863Z,69.52
2023-03-26T03:16:28.684Z,69.20
2023-03-26T03:18:58.797Z,68.50
2023-03-26T03:21:36.379Z,68.11
2023-03-26T03:24:05.229Z,67.85
2023-03-26T03:26:38.630Z,67.83
2023-03-26T03:29:19.650Z,67.73
2023-03-26T03:31:48.850Z,67.14
2023-03-26T03:34:30.492Z,66.87
2023-03-26T03:36:59.336Z,66.68
2023-03-26T03:39:36.105Z,66.58
2023-03-26T03:42:05.536Z,66.49
2023-03-26T03:44:34.206Z,66.24
2023-03-26T03:47:02.632Z,66.00
2023-03-26T03:49:30.848Z,65.77
2023-03-26T03:51:59.554Z,65.58
2023-03-26T03:54:33.165Z,65.68
2023-03-26T03:57:22.154Z,65.83
2023-03-26T04:00:07.123Z,65.58
2023-03-26T04:02:46.367Z,65.24
2023-03-26T04:05:15.420Z,65.03
2023-03-26T04:07:47.461Z,64.83
2023-03-26T04:10:27.732Z,64.68
2023-03-26T04:13:29.487Z,64.44
2023-03-26T04:16:33.524Z,64.02
2023-03-26T04:19:02.598Z,63.52
2023-03-26T04:21:31.203Z,63.56
2023-03-26T04:24:02.038Z,63.68
2023-03-26T04:26:50.156Z,63.43
2023-03-26T04:29:22.158Z,63.37
2023-03-26T04:32:06.699Z,63.49
2023-03-26T04:34:36.531Z,63.72
2023-03-26T04:37:24.899Z,63.96
2023-03-26T04:40:08.523Z,63.93
2023-03-26T04:42:46.360Z,63.96
2023-03-26T04:45:26.236Z,64.03
2023-03-26T04:47:58.487Z,63.94
2023-03-26T04:50:27.227Z,63.80
2023-03-26T04:52:56.811Z,63.71
2023-03-26T04:56:02.651Z,63.73
2023-03-26T04:58:57.095Z,63.80
2023-03-26T05:01:28.551Z,63.91
2023-03-26T05:03:58.631Z,64.03
2023-03-26T05:06:28.662Z,64.07
2023-03-26T05:08:56.939Z,64.18
2023-03-26T05:11:42.674Z,64.18
2023-03-26T05:14:10.985Z,64.19
2023-03-26T05:16:41.621Z,64.02
2023-03-26T05:19:10.799Z,63.96
2023-03-26T05:21:39.379Z,64.10
2023-03-26T05:24:10.833Z,63.97
2023-03-26T05:26:39.312Z,63.84
2023-03-26T05:29:07.561Z,63.80
2023-03-26T05:31:38.861Z,63.84
2023-03-26T05:34:07.532Z,63.72
2023-03-26T05:36:39.079Z,63.38
2023-03-26T05:39:34.013Z,63.58
2023-03-26T05:42:26.529Z,63.41
2023-03-26T05:45:16.929Z,63.07
2023-03-26T05:47:45.843Z,62.92
2023-03-26T05:50:14.948Z,62.83
2023-03-26T05:52:46.564Z,62.70
2023-03-26T05:55:35.129Z,62.68
2023-03-26T05:58:30.746Z,62.75
2023-03-26T06:01:19.750Z,62.65
2023-03-26T06:04:07.969Z,62.37
2023-03-26T06:06:43.040Z,62.28
2023-03-26T06:09:13.355Z,61.92
2023-03-26T06:11:41.988Z,62.02
2023-03-26T06:14:10.838Z,61.97
2023-03-26T06:30:27.382Z,60.77
2023-03-26T06:33:04.296Z,59.65
2023-03-26T06:35:37.898Z,59.58
2023-03-26T06:38:07.175Z,59.49
2023-03-26T06:40:36.478Z,59.24
2023-03-26T06:43:35.832Z,59.35
2023-03-26T06:46:25.575Z,58.95
2023-03-26T06:49:11.745Z,58.79
2023-03-26T06:52:15.913Z,58.81
2023-03-26T06:55:02.661Z,58.98
2023-03-26T06:57:51.459Z,59.16
2023-03-26T07:00:41.628Z,58.97
2023-03-26T07:03:27.712Z,58.66
2023-03-26T07:06:14.020Z,58.27
2023-03-26T07:09:07.382Z,58.22
2023-03-26T07:11:53.476Z,57.56
2023-03-26T07:14:30.151Z,57.43
2023-03-26T07:17:32.985Z,57.54
2023-03-26T07:20:11.768Z,57.63
2023-03-26T07:22:39.833Z,57.58
2023-03-26T07:25:07.832Z,57.28
2023-03-26T07:28:20.009Z,56.54
2023-03-26T07:31:36.970Z,55.92
2023-03-26T07:34:44.330Z,55.78
2023-03-26T07:37:45.880Z,55.35
2023-03-26T07:40:43.006Z,55.10
2023-03-26T07:43:54.004Z,55.08
2023-03-26T07:46:31.912Z,54.83
2023-03-26T07:49:19.817Z,54.91
2023-03-26T07:52:06.965Z,55.23
2023-03-26T07:54:55.833Z,55.59
2023-03-26T07:58:03.471Z,55.79
2023-03-26T08:00:58.427Z,55.80
2023-03-26T08:03:37.849Z,55.42
2023-03-26T08:06:35.644Z,54.98
2023-03-26T08:09:53.883Z,54.55
2023-03-26T08:13:00.253Z,53.72
2023-03-26T08:15:32.357Z,53.70
2023-03-26T08:18:17.617Z,53.86
2023-03-26T08:20:49.449Z,54.06
2023-03-26T08:23:18.357Z,54.04
2023-03-26T08:26:04.237Z,54.15
2023-03-26T08:28:56.174Z,54.36
2023-03-26T08:31:34.451Z,54.43
2023-03-26T08:34:01.424Z,54.45
2023-03-26T08:36:29.084Z,53.85
2023-03-26T08:38:57.157Z,53.51
2023-03-26T08:41:44.071Z,53.10
2023-03-26T08:44:23.251Z,52.89
2023-03-26T08:47:15.791Z,52.63
2023-03-26T08:50:11.370Z,52.84
2023-03-26T08:52:59.307Z,53.05
2023-03-26T08:55:30.643Z,52.55
2023-03-26T08:58:06.037Z,52.37
2023-03-26T09:00:37.347Z,51.79
2023-03-26T09:03:09.341Z,51.38
2023-03-26T09:05:46.197Z,51.18
2023-03-26T09:08:18.561Z,51.27
2023-03-26T09:11:11.613Z,51.31
2023-03-26T09:14:07.453Z,50.83
2023-03-26T09:16:56.921Z,51.00
2023-03-26T09:19:47.004Z,51.08
2023-03-26T09:22:35.355Z,50.96
2023-03-26T09:25:26.980Z,50.80
2023-03-26T09:28:09.251Z,50.54
2023-03-26T09:30:53.274Z,50.50
2023-03-26T09:33:42.986Z,50.47
2023-03-26T09:36:47.230Z,50.02
2023-03-26T09:39:31.569Z,49.70
2023-03-26T09:42:05.596Z,49.52
2023-03-26T09:45:10.621Z,49.46
2023-03-26T09:48:15.881Z,49.06
2023-03-26T09:50:53.390Z,49.02
2023-03-26T09:53:20.628Z,49.03
2023-03-26T09:55:53.678Z,49.23
2023-03-26T09:58:52.517Z,49.05
2023-03-26T10:01:31.632Z,48.73
2023-03-26T10:04:01.777Z,49.15
2023-03-26T10:06:48.112Z,49.16
2023-03-26T10:09:26.844Z,49.66
2023-03-26T10:12:09.504Z,49.84
2023-03-26T10:15:28.460Z,49.62
2023-03-26T10:18:00.314Z,49.86
2023-03-26T10:20:28.189Z,49.81
2023-03-26T10:23:04.451Z,50.19
2023-03-26T10:25:42.518Z,50.85
2023-03-26T10:28:14.098Z,51.96
2023-03-26T10:30:58.499Z,52.85
2023-03-26T10:33:47.375Z,53.57
2023-03-26T10:37:10.733Z,53.95
2023-03-26T10:39:43.881Z,54.18
2023-03-26T10:42:32.952Z,54.52
2023-03-26T10:45:07.433Z,55.06
2023-03-26T10:47:37.931Z,55.55
2023-03-26T10:50:26.403Z,55.94
2023-03-26T10:53:15.251Z,56.34
2023-03-26T10:55:46.083Z,56.37
2023-03-26T10:58:27.266Z,56.08
2023-03-26T11:01:20.408Z,56.22
2023-03-26T11:03:51.327Z,56.51
2023-03-26T11:06:26.865Z,56.57
2023-03-26T11:09:32.236Z,57.19
2023-03-26T11:12:28.963Z,57.67
2023-03-26T11:15:34.959Z,58.30
2023-03-26T11:18:14.041Z,58.98
2023-03-26T11:20:53.306Z,59.44
2023-03-26T11:23:40.107Z,59.86
2023-03-26T11:26:17.504Z,60.02
2023-03-26T11:29:03.309Z,60.40
2023-03-26T11:31:40.501Z,60.91
2023-03-26T11:34:13.107Z,60.60
2023-03-26T11:36:44.418Z,59.76
2023-03-26T11:39:13.554Z,59.82
2023-03-26T11:41:40.706Z,60.05
2023-03-26T11:44:38.484Z,58.10
2023-03-26T11:47:09.686Z,56.38
2023-03-26T11:49:37.530Z,55.88
2023-03-26T11:52:11.846Z,55.82
2023-03-26T11:54:38.796Z,55.81
2023-03-26T11:57:11.545Z,55.80
2023-03-26T11:59:56.451Z,54.96
2023-03-26T12:02:35.102Z,54.74
2023-03-26T12:05:19.915Z,54.60
2023-03-26T12:08:00.319Z,54.41
2023-03-26T12:10:38.685Z,54.00
2023-03-26T12:13:20.719Z,53.60
2023-03-26T12:15:51.030Z,53.67
2023-03-26T12:18:25.743Z,54.05
2023-03-26T12:21:13.985Z,54.80
2023-03-26T12:23:50.352Z,55.32
2023-03-26T12:26:33.579Z,55.56
2023-03-26T12:29:14.764Z,55.60
2023-03-26T12:32:06.975Z,54.20
2023-03-26T12:34:37.653Z,50.67
2023-03-26T12:37:06.347Z,49.77
2023-03-26T12:40:09.700Z,48.82
2023-03-26T12:44:51.594Z,47.50
2023-03-26T12:45:22.985Z,47.23
2023-03-26T12:47:59.881Z,47.05
2023-03-26T12:50:56.608Z,47.07
2023-03-26T12:53:33.185Z,47.41
2023-03-26T12:56:35.790Z,47.43
2023-03-26T12:59:42.313Z,47.00
2023-03-26T13:02:38.106Z,47.21
2023-03-26T13:05:24.376Z,47.79
2023-03-26T13:08:14.320Z,48.22
2023-03-26T13:11:04.819Z,48.36
2023-03-26T13:13:52.461Z,48.63
2023-03-26T13:16:37.036Z,48.86
2023-03-26T13:19:15.657Z,50.86
2023-03-26T13:22:14.320Z,53.50
2023-03-26T13:25:21.934Z,54.67
2023-03-26T13:27:49.488Z,55.60
2023-03-26T13:31:02.693Z,55.97
2023-03-26T13:33:32.943Z,54.51
2023-03-26T13:36:41.334Z,53.64
2023-03-26T13:39:23.256Z,55.55
2023-03-26T13:42:21.862Z,56.82
2023-03-26T13:45:11.818Z,57.72
2023-03-26T13:47:42.632Z,57.85
2023-03-26T13:50:26.505Z,57.33
2023-03-26T13:53:06.209Z,56.99
2023-03-26T13:55:37.725Z,56.60
2023-03-26T13:58:08.230Z,55.77
2023-03-26T14:00:59.721Z,56.12
2023-03-26T14:03:46.385Z,56.34
2023-03-26T14:06:22.527Z,56.42
2023-03-26T14:09:31.472Z,56.72
2023-03-26T14:12:21.491Z,56.48
2023-03-26T14:15:03.951Z,56.33
2023-03-26T14:17:47.913Z,55.35
2023-03-26T14:20:33.596Z,54.27
2023-03-26T14:23:19.768Z,51.99
2023-03-26T14:25:56.249Z,50.42
2023-03-26T14:28:32.402Z,47.94
2023-03-26T14:31:10.831Z,47.34
2023-03-26T14:33:40.835Z,46.58
2023-03-26T14:36:21.093Z,46.25
2023-03-26T14:39:24.493Z,45.01
2023-03-26T14:42:20.072Z,42.16
2023-03-26T14:45:20.646Z,41.32
2023-03-26T14:48:01.215Z,38.26
2023-03-26T14:50:50.991Z,35.55
2023-03-26T14:53:32.894Z,34.43
2023-03-26T14:56:25.534Z,33.40
2023-03-26T14:59:17.682Z,34.01
2023-03-26T15:01:56.921Z,34.73
2023-03-26T15:04:30.916Z,35.69
2023-03-26T15:07:40.670Z,36.58
2023-03-26T15:10:34.445Z,37.58
2023-03-26T15:13:10.076Z,37.62
2023-03-26T15:15:58.440Z,36.48
2023-03-26T15:18:33.884Z,36.26
2023-03-26T15:21:13.533Z,36.63
2023-03-26T15:24:04.228Z,37.17
2023-03-26T15:26:31.173Z,37.68
2023-03-26T15:29:21.262Z,37.85
2023-03-26T15:32:08.637Z,37.43
2023-03-26T15:35:06.660Z,37.53
2023-03-26T15:37:48.559Z,37.18
2023-03-26T15:40:28.714Z,37.66
2023-03-26T15:43:12.492Z,37.96
2023-03-26T15:45:48.642Z,37.82
2023-03-26T15:48:29.484Z,37.41
2023-03-26T15:51:46.261Z,36.92
2023-03-26T15:54:35.562Z,37.31
2023-03-26T15:57:16.195Z,38.06
2023-03-26T16:00:14.727Z,38.57
2023-03-26T16:02:53.305Z,39.38
2023-03-26T16:05:32.547Z,40.12
2023-03-26T16:08:18.154Z,40.79
2023-03-26T16:10:59.720Z,41.47
2023-03-26T16:13:30.279Z,42.06
2023-03-26T16:16:03.945Z,42.51
2023-03-26T16:18:54.986Z,43.13
2023-03-26T16:21:33.875Z,43.71
2023-03-26T16:24:07.518Z,44.18
2023-03-26T16:26:47.470Z,44.79
2023-03-26T16:29:14.741Z,45.34
2023-03-26T16:32:07.055Z,45.85
2023-03-26T16:34:47.625Z,46.33
2023-03-26T16:37:35.039Z,46.76
2023-03-26T16:40:17.766Z,46.94
2023-03-26T16:43:20.148Z,47.18
2023-03-26T16:45:51.902Z,47.58
2023-03-26T16:48:40.971Z,47.60
2023-03-26T16:51:23.586Z,47.84
2023-03-26T16:53:58.391Z,48.00
2023-03-26T16:56:28.944Z,48.13
2023-03-26T16:59:01.421Z,48.29
2023-03-26T17:01:49.398Z,48.44
2023-03-26T17:04:23.133Z,48.67
2023-03-26T17:06:56.148Z,48.93
2023-03-26T17:09:51.215Z,49.12
2023-03-26T17:12:36.462Z,49.38
2023-03-26T17:15:40.549Z,49.66
2023-03-26T17:18:20.381Z,49.88
2023-03-26T17:21:46.237Z,49.97
2023-03-26T17:24:55.734Z,50.25
2023-03-26T17:28:05.721Z,50.52
2023-03-26T17:30:45.622Z,50.77
2023-03-26T17:33:27.253Z,50.82
2023-03-26T17:36:12.594Z,50.91
2023-03-26T17:38:47.079Z,51.01
2023-03-26T17:41:17.858Z,51.08
2023-03-26T17:43:51.720Z,51.09
2023-03-26T17:46:41.835Z,51.00
2023-03-26T17:49:11.910Z,51.01
2023-03-26T17:52:14.792Z,51.03
2023-03-26T17:54:49.329Z,51.12
2023-03-26T17:57:25.780Z,51.25
2023-03-26T17:59:56.376Z,51.18
2023-03-26T18:02:38.900Z,51.06
2023-03-26T18:05:07.933Z,51.04
2023-03-26T18:07:45.529Z,51.18
2023-03-26T18:10:43.665Z,51.22
2023-03-26T18:13:48.259Z,51.24
2023-03-26T18:16:15.613Z,51.28
2023-03-26T18:19:01.812Z,51.39
2023-03-26T18:21:39.263Z,51.47
2023-03-26T18:24:07.225Z,51.46
2023-03-26T18:26:39.597Z,51.57
2023-03-26T18:29:10.042Z,51.76
2023-03-26T18:31:42.942Z,51.79
2023-03-26T18:37:38.746Z,52.45
2023-03-26T18:40:12.014Z,52.16
2023-03-26T18:42:41.660Z,52.26
2023-03-26T18:45:24.899Z,52.34
2023-03-26T18:47:54.281Z,52.51
2023-03-26T18:50:28.217Z,52.70
2023-03-26T18:52:58.278Z,52.79
2023-03-26T18:55:28.421Z,53.08
2023-03-26T18:57:57.208Z,53.15
2023-03-26T19:00:27.932Z,53.18
2023-03-26T19:03:03.941Z,53.37
2023-03-26T19:05:33.800Z,53.47
2023-03-26T19:08:05.460Z,53.71
2023-03-26T19:10:35.491Z,53.91
2023-03-26T19:13:04.255Z,54.13
2023-03-26T19:15:33.442Z,54.25
2023-03-26T19:18:09.994Z,54.27
2023-03-26T19:20:59.540Z,54.42
2023-03-26T19:23:38.865Z,54.70
2023-03-26T19:26:09.364Z,54.88
2023-03-26T19:28:49.314Z,55.03
2023-03-26T19:31:23.186Z,55.24
2023-03-26T19:33:59.254Z,55.41
2023-03-26T19:36:31.525Z,55.56
2023-03-26T19:38:59.649Z,55.64
2023-03-26T19:41:32.962Z,55.82
2023-03-26T19:44:03.121Z,55.91
2023-03-26T19:46:33.804Z,55.92
2023-03-26T19:49:32.446Z,55.86
2023-03-26T19:52:05.535Z,55.68
2023-03-26T19:55:04.921Z,55.48
2023-03-26T19:57:33.193Z,55.40
2023-03-26T20:00:13.339Z,55.38
2023-03-26T20:02:45.897Z,55.37
2023-03-26T20:05:29.509Z,55.53
2023-03-26T20:07:59.864Z,55.54
2023-03-26T20:10:28.070Z,55.45
2023-03-26T20:12:57.065Z,55.44
2023-03-26T20:15:27.296Z,55.36
2023-03-26T20:17:56.441Z,55.48
2023-03-26T20:20:25.635Z,55.48
2023-03-26T20:22:54.367Z,55.49
2023-03-26T20:25:35.044Z,55.59
2023-03-26T20:28:04.805Z,55.71
2023-03-26T20:30:37.816Z,55.76
2023-03-26T20:33:16.540Z,55.90
2023-03-26T20:35:45.396Z,56.08
2023-03-26T20:38:14.030Z,56.16
2023-03-26T20:40:42.611Z,56.21
2023-03-26T20:43:12.375Z,56.28
2023-03-26T20:45:40.691Z,56.38
2023-03-26T20:48:10.716Z,56.43
2023-03-26T20:50:50.267Z,56.34
2023-03-26T20:53:21.220Z,56.41
2023-03-26T20:55:51.719Z,56.38
2023-03-26T20:58:31.907Z,56.47
2023-03-26T21:03:55.173Z,56.89
2023-03-26T21:19:35.740Z,56.55
2023-03-26T21:22:10.769Z,55.80
2023-03-26T21:25:03.187Z,55.85
2023-03-26T21:27:46.669Z,56.09
2023-03-26T21:30:16.764Z,56.27
2023-03-26T21:32:46.521Z,56.47
2023-03-26T21:35:20.002Z,56.81
2023-03-26T21:37:49.125Z,57.00
2023-03-26T21:40:18.451Z,57.33
2023-03-26T21:42:50.291Z,57.57
2023-03-26T21:45:19.198Z,57.74
2023-03-26T21:47:52.489Z,57.71
2023-03-26T21:50:23.631Z,57.78
2023-03-26T21:52:52.243Z,57.82
2023-03-26T21:55:22.285Z,57.88
2023-03-26T21:58:18.635Z,58.03
2023-03-26T22:01:11.588Z,58.13
2023-03-26T22:04:02.135Z,58.18
2023-03-26T22:06:54.387Z,58.37
2023-03-26T22:09:35.515Z,58.47
2023-03-26T22:12:06.618Z,58.48
2023-03-26T22:14:35.882Z,58.51
2023-03-26T22:17:04.461Z,58.50
2023-03-26T22:19:34.717Z,58.51
2023-03-26T22:22:04.355Z,58.43
2023-03-26T22:24:34.464Z,58.38
2023-03-26T22:27:03.813Z,58.44
2023-03-26T22:29:32.911Z,58.49
2023-03-26T22:32:00.971Z,58.40
2023-03-26T22:34:29.413Z,58.45
2023-03-26T22:36:57.444Z,58.48
2023-03-26T22:39:43.655Z,58.57
2023-03-26T22:42:11.819Z,58.51
2023-03-26T22:44:40.093Z,58.59
2023-03-26T22:47:09.996Z,58.76
2023-03-26T22:49:38.436Z,58.75
2023-03-26T22:52:13.820Z,58.75
2023-03-26T22:54:42.728Z,58.84
2023-03-26T22:57:11.237Z,58.88
2023-03-26T22:59:41.003Z,58.84
2023-03-26T23:02:11.084Z,58.92
2023-03-26T23:04:39.322Z,59.00
2023-03-26T23:07:07.787Z,59.07
2023-03-26T23:09:36.913Z,59.32
2023-03-26T23:12:10.069Z,59.30
2023-03-26T23:14:38.860Z,59.40
2023-03-26T23:17:07.770Z,59.41
2023-03-26T23:19:43.349Z,59.54
2023-03-26T23:22:11.674Z,59.46
2023-03-26T23:24:40.075Z,59.50
2023-03-26T23:27:09.566Z,59.49
2023-03-26T23:29:38.151Z,59.62
2023-03-26T23:32:23.476Z,59.48
2023-03-26T23:34:53.114Z,59.47
2023-03-26T23:37:25.717Z,59.41
2023-03-26T23:39:54.193Z,59.54
2023-03-26T23:42:29.211Z,59.71
2023-03-26T23:44:58.019Z,59.72
2023-03-26T23:47:27.252Z,59.74
2023-03-26T23:49:59.588Z,59.74
2023-03-26T23:52:27.863Z,59.74
2023-03-26T23:54:59.071Z,59.82
2023-03-26T23:57:30.716Z,59.80
2023-03-26T23:59:59.144Z,59.73
